sensor_id;sensor_type;location;lat;lon;timestamp;temperature;humidity
75130;HTU21D;63703;44.716;37.846;2023-05-10T00:01:25;10.14;84.35
75130;HTU21D;63703;44.716;37.846;2023-05-10T00:03:51;10.14;84.36
75130;HTU21D;63703;44.716;37.846;2023-05-10T00:06:17;10.14;84.38
75130;HTU21D;63703;44.716;37.846;2023-05-10T00:08:44;10.13;84.39
75130;HTU21D;63703;44.716;37.846;2023-05-10T00:11:10;10.14;84.41
75130;HTU21D;63703;44.716;37.846;2023-05-10T00:13:35;10.15;84.45
75130;HTU21D;63703;44.716;37.846;2023-05-10T00:16:01;10.14;84.48
75130;HTU21D;63703;44.716;37.846;2023-05-10T00:18:27;10.15;84.53
75130;HTU21D;63703;44.716;37.846;2023-05-10T00:20:53;10.16;84.56
75130;HTU21D;63703;44.716;37.846;2023-05-10T00:23:19;10.18;84.58
75130;HTU21D;63703;44.716;37.846;2023-05-10T00:25:45;10.18;84.59
75130;HTU21D;63703;44.716;37.846;2023-05-10T00:28:11;10.19;84.65
75130;HTU21D;63703;44.716;37.846;2023-05-10T00:30:37;10.21;84.67
75130;HTU21D;63703;44.716;37.846;2023-05-10T00:33:03;10.20;84.68
75130;HTU21D;63703;44.716;37.846;2023-05-10T00:35:29;10.20;84.71
75130;HTU21D;63703;44.716;37.846;2023-05-10T00:37:55;10.16;84.76
75130;HTU21D;63703;44.716;37.846;2023-05-10T00:40:20;10.15;84.77
75130;HTU21D;63703;44.716;37.846;2023-05-10T00:42:51;10.13;84.80
75130;HTU21D;63703;44.716;37.846;2023-05-10T00:45:17;10.13;84.78
75130;HTU21D;63703;44.716;37.846;2023-05-10T00:47:44;10.13;84.78
75130;HTU21D;63703;44.716;37.846;2023-05-10T00:50:10;10.12;84.75
75130;HTU21D;63703;44.716;37.846;2023-05-10T00:52:36;10.14;84.73
75130;HTU21D;63703;44.716;37.846;2023-05-10T00:55:02;10.11;84.72
75130;HTU21D;63703;44.716;37.846;2023-05-10T00:57:30;10.09;84.77
75130;HTU21D;63703;44.716;37.846;2023-05-10T00:59:57;10.04;84.79
75130;HTU21D;63703;44.716;37.846;2023-05-10T01:02:24;10.01;84.81
75130;HTU21D;63703;44.716;37.846;2023-05-10T01:04:50;9.98;84.78
75130;HTU21D;63703;44.716;37.846;2023-05-10T01:07:17;9.97;84.75
75130;HTU21D;63703;44.716;37.846;2023-05-10T01:09:43;9.95;84.71
75130;HTU21D;63703;44.716;37.846;2023-05-10T01:12:11;9.96;84.65
75130;HTU21D;63703;44.716;37.846;2023-05-10T01:14:37;9.95;84.62
75130;HTU21D;63703;44.716;37.846;2023-05-10T01:17:05;9.92;84.55
75130;HTU21D;63703;44.716;37.846;2023-05-10T01:19:34;9.88;84.58
75130;HTU21D;63703;44.716;37.846;2023-05-10T01:22:25;9.85;84.54
75130;HTU21D;63703;44.716;37.846;2023-05-10T01:33:36;9.63;84.80
75130;HTU21D;63703;44.716;37.846;2023-05-10T01:36:31;9.59;84.77
75130;HTU21D;63703;44.716;37.846;2023-05-10T01:41:55;9.47;84.85
75130;HTU21D;63703;44.716;37.846;2023-05-10T01:47:30;9.35;84.88
75130;HTU21D;63703;44.716;37.846;2023-05-10T01:50:03;9.29;84.90
75130;HTU21D;63703;44.716;37.846;2023-05-10T01:52:33;9.23;84.90
75130;HTU21D;63703;44.716;37.846;2023-05-10T01:55:05;9.17;84.88
75130;HTU21D;63703;44.716;37.846;2023-05-10T01:57:34;9.10;84.87
75130;HTU21D;63703;44.716;37.846;2023-05-10T02:00:04;9.04;84.87
75130;HTU21D;63703;44.716;37.846;2023-05-10T02:02:42;8.97;84.95
75130;HTU21D;63703;44.716;37.846;2023-05-10T02:05:12;8.91;85.00
75130;HTU21D;63703;44.716;37.846;2023-05-10T02:07:39;8.85;85.03
75130;HTU21D;63703;44.716;37.846;2023-05-10T02:10:07;8.78;85.06
75130;HTU21D;63703;44.716;37.846;2023-05-10T02:12:41;8.74;85.08
75130;HTU21D;63703;44.716;37.846;2023-05-10T02:15:07;8.67;85.13
75130;HTU21D;63703;44.716;37.846;2023-05-10T02:17:35;8.62;85.12
75130;HTU21D;63703;44.716;37.846;2023-05-10T02:20:03;8.58;85.13
75130;HTU21D;63703;44.716;37.846;2023-05-10T02:22:31;8.52;85.13
75130;HTU21D;63703;44.716;37.846;2023-05-10T02:24:58;8.49;85.13
75130;HTU21D;63703;44.716;37.846;2023-05-10T02:27:27;8.47;85.13
75130;HTU21D;63703;44.716;37.846;2023-05-10T02:29:54;8.47;85.13
75130;HTU21D;63703;44.716;37.846;2023-05-10T02:32:22;8.46;85.17
75130;HTU21D;63703;44.716;37.846;2023-05-10T02:34:49;8.44;85.18
75130;HTU21D;63703;44.716;37.846;2023-05-10T02:37:21;8.43;85.21
75130;HTU21D;63703;44.716;37.846;2023-05-10T02:39:49;8.42;85.25
75130;HTU21D;63703;44.716;37.846;2023-05-10T02:42:22;8.45;85.22
75130;HTU21D;63703;44.716;37.846;2023-05-10T02:44:51;8.46;85.29
75130;HTU21D;63703;44.716;37.846;2023-05-10T02:47:18;8.49;85.26
75130;HTU21D;63703;44.716;37.846;2023-05-10T02:49:44;8.52;85.23
75130;HTU21D;63703;44.716;37.846;2023-05-10T02:52:12;8.55;85.25
75130;HTU21D;63703;44.716;37.846;2023-05-10T02:54:49;8.61;85.27
75130;HTU21D;63703;44.716;37.846;2023-05-10T02:57:17;8.65;85.16
75130;HTU21D;63703;44.716;37.846;2023-05-10T02:59:45;8.67;85.17
75130;HTU21D;63703;44.716;37.846;2023-05-10T03:02:12;8.72;85.13
75130;HTU21D;63703;44.716;37.846;2023-05-10T03:04:39;8.75;85.07
75130;HTU21D;63703;44.716;37.846;2023-05-10T03:07:05;8.79;85.01
75130;HTU21D;63703;44.716;37.846;2023-05-10T03:09:32;8.83;84.90
75130;HTU21D;63703;44.716;37.846;2023-05-10T03:12:04;8.87;84.81
75130;HTU21D;63703;44.716;37.846;2023-05-10T03:14:53;8.92;84.68
75130;HTU21D;63703;44.716;37.846;2023-05-10T03:17:29;8.94;84.57
75130;HTU21D;63703;44.716;37.846;2023-05-10T03:19:57;8.95;84.50
75130;HTU21D;63703;44.716;37.846;2023-05-10T03:22:45;8.96;84.27
75130;HTU21D;63703;44.716;37.846;2023-05-10T03:25:15;8.96;84.39
75130;HTU21D;63703;44.716;37.846;2023-05-10T03:27:43;9.02;84.26
75130;HTU21D;63703;44.716;37.846;2023-05-10T03:30:12;9.09;84.10
75130;HTU21D;63703;44.716;37.846;2023-05-10T03:32:38;9.14;83.93
75130;HTU21D;63703;44.716;37.846;2023-05-10T03:35:08;9.18;83.81
75130;HTU21D;63703;44.716;37.846;2023-05-10T03:37:35;9.22;83.74
75130;HTU21D;63703;44.716;37.846;2023-05-10T03:40:02;9.27;83.61
75130;HTU21D;63703;44.716;37.846;2023-05-10T03:42:31;9.32;83.57
75130;HTU21D;63703;44.716;37.846;2023-05-10T03:44:57;9.40;83.45
75130;HTU21D;63703;44.716;37.846;2023-05-10T03:47:24;9.48;83.34
75130;HTU21D;63703;44.716;37.846;2023-05-10T03:49:49;9.59;83.13
75130;HTU21D;63703;44.716;37.846;2023-05-10T03:52:16;9.68;82.90
75130;HTU21D;63703;44.716;37.846;2023-05-10T03:54:44;9.81;82.68
75130;HTU21D;63703;44.716;37.846;2023-05-10T03:57:09;9.93;82.49
75130;HTU21D;63703;44.716;37.846;2023-05-10T03:59:36;10.10;82.24
75130;HTU21D;63703;44.716;37.846;2023-05-10T04:02:01;10.26;81.84
75130;HTU21D;63703;44.716;37.846;2023-05-10T04:04:29;10.40;81.55
75130;HTU21D;63703;44.716;37.846;2023-05-10T04:06:55;10.50;81.32
75130;HTU21D;63703;44.716;37.846;2023-05-10T04:09:21;10.54;81.03
75130;HTU21D;63703;44.716;37.846;2023-05-10T04:11:46;10.58;80.90
75130;HTU21D;63703;44.716;37.846;2023-05-10T04:14:12;10.60;80.66
75130;HTU21D;63703;44.716;37.846;2023-05-10T04:16:38;10.66;80.42
75130;HTU21D;63703;44.716;37.846;2023-05-10T04:19:04;10.69;80.27
75130;HTU21D;63703;44.716;37.846;2023-05-10T04:21:30;10.72;80.04
75130;HTU21D;63703;44.716;37.846;2023-05-10T04:23:56;10.70;80.02
75130;HTU21D;63703;44.716;37.846;2023-05-10T04:26:22;10.67;79.97
75130;HTU21D;63703;44.716;37.846;2023-05-10T04:28:48;10.65;79.81
75130;HTU21D;63703;44.716;37.846;2023-05-10T04:31:14;10.67;79.63
75130;HTU21D;63703;44.716;37.846;2023-05-10T04:33:40;10.68;79.36
75130;HTU21D;63703;44.716;37.846;2023-05-10T04:36:06;10.71;79.27
75130;HTU21D;63703;44.716;37.846;2023-05-10T04:38:32;10.78;79.05
75130;HTU21D;63703;44.716;37.846;2023-05-10T04:41:08;10.80;78.80
75130;HTU21D;63703;44.716;37.846;2023-05-10T04:43:35;10.80;78.94
75130;HTU21D;63703;44.716;37.846;2023-05-10T04:46:01;10.82;78.90
75130;HTU21D;63703;44.716;37.846;2023-05-10T04:48:27;10.84;78.87
75130;HTU21D;63703;44.716;37.846;2023-05-10T04:50:53;10.84;78.76
75130;HTU21D;63703;44.716;37.846;2023-05-10T04:53:19;10.88;78.76
75130;HTU21D;63703;44.716;37.846;2023-05-10T04:55:45;10.89;78.79
75130;HTU21D;63703;44.716;37.846;2023-05-10T04:58:12;10.94;78.76
75130;HTU21D;63703;44.716;37.846;2023-05-10T05:00:38;11.03;78.66
75130;HTU21D;63703;44.716;37.846;2023-05-10T05:03:04;11.14;78.54
75130;HTU21D;63703;44.716;37.846;2023-05-10T05:05:30;11.29;78.29
75130;HTU21D;63703;44.716;37.846;2023-05-10T05:07:56;11.40;78.18
75130;HTU21D;63703;44.716;37.846;2023-05-10T05:10:22;11.51;78.05
75130;HTU21D;63703;44.716;37.846;2023-05-10T05:12:48;11.59;77.69
75130;HTU21D;63703;44.716;37.846;2023-05-10T05:15:14;11.67;77.50
75130;HTU21D;63703;44.716;37.846;2023-05-10T05:17:42;11.72;77.24
75130;HTU21D;63703;44.716;37.846;2023-05-10T05:20:09;11.73;77.05
75130;HTU21D;63703;44.716;37.846;2023-05-10T05:22:36;11.76;76.84
75130;HTU21D;63703;44.716;37.846;2023-05-10T05:25:03;11.82;76.64
75130;HTU21D;63703;44.716;37.846;2023-05-10T05:27:29;11.83;76.18
75130;HTU21D;63703;44.716;37.846;2023-05-10T05:29:56;11.78;75.79
75130;HTU21D;63703;44.716;37.846;2023-05-10T05:32:22;11.74;75.89
75130;HTU21D;63703;44.716;37.846;2023-05-10T05:34:48;11.81;75.78
75130;HTU21D;63703;44.716;37.846;2023-05-10T05:37:16;11.89;75.50
75130;HTU21D;63703;44.716;37.846;2023-05-10T05:39:42;11.99;75.22
75130;HTU21D;63703;44.716;37.846;2023-05-10T05:42:09;12.03;75.04
75130;HTU21D;63703;44.716;37.846;2023-05-10T05:44:35;12.06;74.78
75130;HTU21D;63703;44.716;37.846;2023-05-10T05:47:01;12.07;74.67
75130;HTU21D;63703;44.716;37.846;2023-05-10T05:49:27;12.04;74.35
75130;HTU21D;63703;44.716;37.846;2023-05-10T05:51:53;12.04;74.11
75130;HTU21D;63703;44.716;37.846;2023-05-10T05:54:19;12.04;74.08
75130;HTU21D;63703;44.716;37.846;2023-05-10T05:56:45;12.06;74.00
75130;HTU21D;63703;44.716;37.846;2023-05-10T05:59:11;12.10;73.90
75130;HTU21D;63703;44.716;37.846;2023-05-10T06:01:37;12.15;73.90
75130;HTU21D;63703;44.716;37.846;2023-05-10T06:04:03;12.19;73.65
75130;HTU21D;63703;44.716;37.846;2023-05-10T06:06:29;12.16;73.66
75130;HTU21D;63703;44.716;37.846;2023-05-10T06:08:55;12.16;73.51
75130;HTU21D;63703;44.716;37.846;2023-05-10T06:11:20;12.16;73.23
75130;HTU21D;63703;44.716;37.846;2023-05-10T06:13:47;12.14;73.25
75130;HTU21D;63703;44.716;37.846;2023-05-10T06:16:13;12.15;73.34
75130;HTU21D;63703;44.716;37.846;2023-05-10T06:18:39;12.21;73.15
75130;HTU21D;63703;44.716;37.846;2023-05-10T06:21:05;12.32;72.99
75130;HTU21D;63703;44.716;37.846;2023-05-10T06:23:31;12.41;72.87
75130;HTU21D;63703;44.716;37.846;2023-05-10T06:25:57;12.45;72.65
75130;HTU21D;63703;44.716;37.846;2023-05-10T06:28:23;12.49;72.69
75130;HTU21D;63703;44.716;37.846;2023-05-10T06:30:49;12.55;72.35
75130;HTU21D;63703;44.716;37.846;2023-05-10T06:33:15;12.65;72.32
75130;HTU21D;63703;44.716;37.846;2023-05-10T06:35:42;12.82;72.02
75130;HTU21D;63703;44.716;37.846;2023-05-10T06:38:08;12.89;71.58
75130;HTU21D;63703;44.716;37.846;2023-05-10T06:40:34;13.01;71.43
75130;HTU21D;63703;44.716;37.846;2023-05-10T06:43:01;13.19;70.98
75130;HTU21D;63703;44.716;37.846;2023-05-10T06:45:27;13.34;70.57
75130;HTU21D;63703;44.716;37.846;2023-05-10T06:47:53;13.45;70.35
75130;HTU21D;63703;44.716;37.846;2023-05-10T06:50:19;13.51;70.07
75130;HTU21D;63703;44.716;37.846;2023-05-10T06:52:45;13.63;69.85
75130;HTU21D;63703;44.716;37.846;2023-05-10T06:55:11;13.85;69.55
75130;HTU21D;63703;44.716;37.846;2023-05-10T06:57:37;14.05;69.23
75130;HTU21D;63703;44.716;37.846;2023-05-10T07:00:03;14.12;68.93
75130;HTU21D;63703;44.716;37.846;2023-05-10T07:02:32;14.25;68.62
75130;HTU21D;63703;44.716;37.846;2023-05-10T07:04:58;14.42;68.46
75130;HTU21D;63703;44.716;37.846;2023-05-10T07:07:24;14.57;67.99
75130;HTU21D;63703;44.716;37.846;2023-05-10T07:09:50;14.78;67.66
75130;HTU21D;63703;44.716;37.846;2023-05-10T07:12:17;14.89;66.98
75130;HTU21D;63703;44.716;37.846;2023-05-10T07:14:43;14.97;66.90
75130;HTU21D;63703;44.716;37.846;2023-05-10T07:17:09;15.03;66.59
75130;HTU21D;63703;44.716;37.846;2023-05-10T07:19:35;15.15;66.39
75130;HTU21D;63703;44.716;37.846;2023-05-10T07:22:01;15.26;65.72
75130;HTU21D;63703;44.716;37.846;2023-05-10T07:24:27;15.42;65.44
75130;HTU21D;63703;44.716;37.846;2023-05-10T07:26:53;15.63;65.16
75130;HTU21D;63703;44.716;37.846;2023-05-10T07:29:19;15.97;64.57
75130;HTU21D;63703;44.716;37.846;2023-05-10T07:31:45;16.27;64.11
75130;HTU21D;63703;44.716;37.846;2023-05-10T07:34:11;16.61;63.38
75130;HTU21D;63703;44.716;37.846;2023-05-10T07:36:37;16.89;63.02
75130;HTU21D;63703;44.716;37.846;2023-05-10T07:39:03;17.02;62.88
75130;HTU21D;63703;44.716;37.846;2023-05-10T07:41:29;17.06;62.57
75130;HTU21D;63703;44.716;37.846;2023-05-10T07:43:54;16.93;62.18
75130;HTU21D;63703;44.716;37.846;2023-05-10T07:46:20;16.81;62.13
75130;HTU21D;63703;44.716;37.846;2023-05-10T07:48:46;16.72;62.05
75130;HTU21D;63703;44.716;37.846;2023-05-10T07:51:12;16.77;61.62
75130;HTU21D;63703;44.716;37.846;2023-05-10T07:53:38;16.90;61.18
75130;HTU21D;63703;44.716;37.846;2023-05-10T07:56:24;17.00;60.29
75130;HTU21D;63703;44.716;37.846;2023-05-10T07:58:59;16.99;60.52
75130;HTU21D;63703;44.716;37.846;2023-05-10T08:01:26;16.86;60.64
75130;HTU21D;63703;44.716;37.846;2023-05-10T08:03:52;16.88;60.35
75130;HTU21D;63703;44.716;37.846;2023-05-10T08:06:19;16.84;59.90
75130;HTU21D;63703;44.716;37.846;2023-05-10T08:08:46;16.79;59.58
75130;HTU21D;63703;44.716;37.846;2023-05-10T08:11:18;16.86;59.48
75130;HTU21D;63703;44.716;37.846;2023-05-10T08:13:48;16.92;59.24
75130;HTU21D;63703;44.716;37.846;2023-05-10T08:16:15;16.99;59.16
75130;HTU21D;63703;44.716;37.846;2023-05-10T08:18:43;17.14;59.00
75130;HTU21D;63703;44.716;37.846;2023-05-10T08:21:10;17.32;59.00
75130;HTU21D;63703;44.716;37.846;2023-05-10T08:23:39;17.47;58.56
75130;HTU21D;63703;44.716;37.846;2023-05-10T08:26:06;17.51;58.04
75130;HTU21D;63703;44.716;37.846;2023-05-10T08:28:32;17.49;58.00
75130;HTU21D;63703;44.716;37.846;2023-05-10T08:30:58;17.49;57.79
75130;HTU21D;63703;44.716;37.846;2023-05-10T08:33:24;17.55;57.42
75130;HTU21D;63703;44.716;37.846;2023-05-10T08:35:50;17.63;57.18
75130;HTU21D;63703;44.716;37.846;2023-05-10T08:38:16;17.65;56.87
75130;HTU21D;63703;44.716;37.846;2023-05-10T08:40:43;17.69;56.61
75130;HTU21D;63703;44.716;37.846;2023-05-10T08:43:11;17.77;56.26
75130;HTU21D;63703;44.716;37.846;2023-05-10T08:45:42;17.91;55.80
75130;HTU21D;63703;44.716;37.846;2023-05-10T08:48:10;18.10;55.94
75130;HTU21D;63703;44.716;37.846;2023-05-10T08:50:38;18.46;55.42
75130;HTU21D;63703;44.716;37.846;2023-05-10T08:53:05;18.72;55.83
75130;HTU21D;63703;44.716;37.846;2023-05-10T08:55:31;19.20;55.52
75130;HTU21D;63703;44.716;37.846;2023-05-10T08:57:59;19.58;56.18
75130;HTU21D;63703;44.716;37.846;2023-05-10T09:00:25;20.00;56.16
75130;HTU21D;63703;44.716;37.846;2023-05-10T09:02:50;20.18;56.27
75130;HTU21D;63703;44.716;37.846;2023-05-10T09:05:16;20.40;55.94
75130;HTU21D;63703;44.716;37.846;2023-05-10T09:07:43;20.53;55.81
75130;HTU21D;63703;44.716;37.846;2023-05-10T09:10:10;20.35;55.61
75130;HTU21D;63703;44.716;37.846;2023-05-10T09:12:36;19.84;54.71
75130;HTU21D;63703;44.716;37.846;2023-05-10T09:15:04;19.40;54.42
75130;HTU21D;63703;44.716;37.846;2023-05-10T09:17:31;19.06;54.46
75130;HTU21D;63703;44.716;37.846;2023-05-10T09:20:01;18.71;53.67
75130;HTU21D;63703;44.716;37.846;2023-05-10T09:22:28;18.34;53.95
75130;HTU21D;63703;44.716;37.846;2023-05-10T09:25:14;17.92;52.53
75130;HTU21D;63703;44.716;37.846;2023-05-10T09:27:43;17.52;53.75
75130;HTU21D;63703;44.716;37.846;2023-05-10T09:30:10;17.15;53.82
75130;HTU21D;63703;44.716;37.846;2023-05-10T09:32:46;16.85;54.09
75130;HTU21D;63703;44.716;37.846;2023-05-10T09:35:21;16.58;54.28
75130;HTU21D;63703;44.716;37.846;2023-05-10T09:37:50;16.25;55.13
75130;HTU21D;63703;44.716;37.846;2023-05-10T09:40:18;15.96;55.39
75130;HTU21D;63703;44.716;37.846;2023-05-10T09:45:27;15.48;56.09
75130;HTU21D;63703;44.716;37.846;2023-05-10T09:47:54;15.32;56.54
75130;HTU21D;63703;44.716;37.846;2023-05-10T09:50:20;15.19;56.96
75130;HTU21D;63703;44.716;37.846;2023-05-10T09:52:51;15.12;57.13
75130;HTU21D;63703;44.716;37.846;2023-05-10T09:55:20;15.03;57.43
75130;HTU21D;63703;44.716;37.846;2023-05-10T09:57:48;15.04;57.70
75130;HTU21D;63703;44.716;37.846;2023-05-10T10:00:18;15.13;57.84
75130;HTU21D;63703;44.716;37.846;2023-05-10T10:03:04;15.24;57.87
75130;HTU21D;63703;44.716;37.846;2023-05-10T10:05:32;15.28;58.19
75130;HTU21D;63703;44.716;37.846;2023-05-10T10:07:59;15.36;58.11
75130;HTU21D;63703;44.716;37.846;2023-05-10T10:10:26;15.46;58.10
75130;HTU21D;63703;44.716;37.846;2023-05-10T10:12:53;15.59;57.95
75130;HTU21D;63703;44.716;37.846;2023-05-10T10:15:23;15.76;57.66
75130;HTU21D;63703;44.716;37.846;2023-05-10T10:17:51;15.82;57.40
75130;HTU21D;63703;44.716;37.846;2023-05-10T10:20:18;15.88;57.29
75130;HTU21D;63703;44.716;37.846;2023-05-10T10:22:44;15.97;56.91
75130;HTU21D;63703;44.716;37.846;2023-05-10T10:25:12;16.02;56.36
75130;HTU21D;63703;44.716;37.846;2023-05-10T10:30:27;16.03;55.93
75130;HTU21D;63703;44.716;37.846;2023-05-10T10:35:34;16.05;55.45
75130;HTU21D;63703;44.716;37.846;2023-05-10T10:38:00;16.13;55.39
75130;HTU21D;63703;44.716;37.846;2023-05-10T10:40:31;16.31;55.26
75130;HTU21D;63703;44.716;37.846;2023-05-10T10:42:58;16.65;54.90
75130;HTU21D;63703;44.716;37.846;2023-05-10T10:45:25;16.89;54.67
75130;HTU21D;63703;44.716;37.846;2023-05-10T10:48:20;17.07;53.58
75130;HTU21D;63703;44.716;37.846;2023-05-10T10:50:46;17.13;54.07
75130;HTU21D;63703;44.716;37.846;2023-05-10T10:53:12;17.11;54.11
75130;HTU21D;63703;44.716;37.846;2023-05-10T10:55:48;17.23;53.89
75130;HTU21D;63703;44.716;37.846;2023-05-10T10:58:30;17.33;53.34
75130;HTU21D;63703;44.716;37.846;2023-05-10T11:01:18;17.43;52.34
75130;HTU21D;63703;44.716;37.846;2023-05-10T11:06:40;17.70;52.78
75130;HTU21D;63703;44.716;37.846;2023-05-10T11:09:09;17.82;52.36
75130;HTU21D;63703;44.716;37.846;2023-05-10T11:11:36;18.04;52.28
75130;HTU21D;63703;44.716;37.846;2023-05-10T11:14:13;18.37;52.05
75130;HTU21D;63703;44.716;37.846;2023-05-10T11:16:42;18.69;52.24
75130;HTU21D;63703;44.716;37.846;2023-05-10T11:19:12;18.95;51.37
75130;HTU21D;63703;44.716;37.846;2023-05-10T11:21:45;18.99;52.20
75130;HTU21D;63703;44.716;37.846;2023-05-10T11:24:14;19.10;52.49
75130;HTU21D;63703;44.716;37.846;2023-05-10T11:26:40;19.03;50.72
75130;HTU21D;63703;44.716;37.846;2023-05-10T11:29:06;18.87;52.33
75130;HTU21D;63703;44.716;37.846;2023-05-10T11:31:33;18.65;52.30
75130;HTU21D;63703;44.716;37.846;2023-05-10T11:34:00;18.58;52.14
75130;HTU21D;63703;44.716;37.846;2023-05-10T11:36:35;18.77;51.50
75130;HTU21D;63703;44.716;37.846;2023-05-10T11:39:02;18.87;51.03
75130;HTU21D;63703;44.716;37.846;2023-05-10T11:41:30;19.08;50.50
75130;HTU21D;63703;44.716;37.846;2023-05-10T11:43:57;19.14;49.84
75130;HTU21D;63703;44.716;37.846;2023-05-10T11:46:25;18.78;49.65
75130;HTU21D;63703;44.716;37.846;2023-05-10T11:48:53;18.30;49.99
75130;HTU21D;63703;44.716;37.846;2023-05-10T11:51:24;17.95;49.98
75130;HTU21D;63703;44.716;37.846;2023-05-10T11:53:55;17.62;50.24
75130;HTU21D;63703;44.716;37.846;2023-05-10T11:56:21;17.30;50.73
75130;HTU21D;63703;44.716;37.846;2023-05-10T11:58:53;17.10;50.63
75130;HTU21D;63703;44.716;37.846;2023-05-10T12:01:21;17.00;51.05
75130;HTU21D;63703;44.716;37.846;2023-05-10T12:03:47;17.00;51.09
75130;HTU21D;63703;44.716;37.846;2023-05-10T12:06:13;17.19;50.95
75130;HTU21D;63703;44.716;37.846;2023-05-10T12:08:45;17.47;50.30
75130;HTU21D;63703;44.716;37.846;2023-05-10T12:11:12;17.70;50.16
75130;HTU21D;63703;44.716;37.846;2023-05-10T12:13:43;17.96;49.82
75130;HTU21D;63703;44.716;37.846;2023-05-10T12:16:23;18.10;49.15
75130;HTU21D;63703;44.716;37.846;2023-05-10T12:18:53;18.40;49.12
75130;HTU21D;63703;44.716;37.846;2023-05-10T12:21:20;18.84;49.85
